Time;durP1;ratioP1;P1;durP2;ratioP2;P2;SDS_P1;SDS_P2;PMS_P1;PMS_P2;Temp;Humidity;BMP_temperature;BMP_pressure;BME280_temperature;BME280_humidity;BME280_pressure;Samples;Min_cycle;Max_cycle;Signal;HPM_P1;HPM_P2
2023/02/25 00:02:12;;;;;;;25.23;17.87;;;11.50;99.90;;;;;;5095441;28;20291;-86
2023/02/25 00:04:40;;;;;;;29.90;18.58;;;11.40;99.90;;;;;;5095305;28;20782;-83
2023/02/25 00:07:07;;;;;;;31.70;18.80;;;11.30;99.90;;;;;;5097182;28;20246;-83
2023/02/25 00:09:32;;;;;;;33.35;21.08;;;11.30;99.90;;;;;;5096428;28;20176;-82
2023/02/25 00:11:58;;;;;;;34.73;19.70;;;11.20;99.90;;;;;;5096464;28;20236;-83
2023/02/25 00:14:24;;;;;;;36.00;19.97;;;11.10;99.90;;;;;;5095040;28;20583;-82
2023/02/25 00:16:50;;;;;;;34.10;18.87;;;11.10;99.90;;;;;;5096407;28;20428;-84
2023/02/25 00:19:15;;;;;;;31.47;18.30;;;11.10;99.90;;;;;;5095452;28;20210;-83
2023/02/25 00:21:41;;;;;;;30.10;18.20;;;11.10;99.90;;;;;;5096317;28;20176;-86
2023/02/25 00:24:07;;;;;;;30.97;18.97;;;11.10;99.90;;;;;;5094888;28;20228;-82
2023/02/25 00:26:33;;;;;;;31.93;17.53;;;11.10;99.90;;;;;;5094819;28;20263;-83
2023/02/25 00:28:59;;;;;;;37.70;18.97;;;11.20;99.90;;;;;;5094735;28;20291;-83
2023/02/25 00:31:24;;;;;;;37.53;18.90;;;11.20;99.90;;;;;;5094892;28;20267;-86
2023/02/25 00:33:51;;;;;;;35.00;18.77;;;11.30;99.90;;;;;;5095743;28;20227;-83
2023/02/25 00:36:21;;;;;;;31.33;19.13;;;11.20;99.90;;;;;;5096070;28;20413;-83
2023/02/25 00:38:52;;;;;;;33.47;19.13;;;11.20;99.90;;;;;;5094698;28;20291;-83
2023/02/25 00:41:21;;;;;;;31.55;18.70;;;11.20;99.90;;;;;;5094738;28;20222;-83
2023/02/25 00:43:53;;;;;;;33.90;18.58;;;11.10;99.90;;;;;;5094448;28;20311;-87
2023/02/25 00:46:20;;;;;;;32.60;19.50;;;11.20;99.90;;;;;;5095870;28;20169;-83
2023/02/25 00:48:45;;;;;;;38.80;22.80;;;11.10;99.90;;;;;;5095584;28;20201;-86
2023/02/25 00:51:18;;;;;;;44.90;26.27;;;11.10;99.90;;;;;;5094435;28;20187;-86
2023/02/25 00:53:44;;;;;;;31.17;17.45;;;11.00;99.90;;;;;;5094181;28;20273;-85
2023/02/25 00:56:16;;;;;;;27.67;17.60;;;11.00;99.90;;;;;;5095646;28;20172;-87
2023/02/25 00:58:44;;;;;;;31.88;18.23;;;11.00;99.90;;;;;;5094129;28;20227;-82
2023/02/25 01:01:17;;;;;;;31.67;17.95;;;10.90;99.90;;;;;;5093782;28;20180;-82
2023/02/25 01:03:43;;;;;;;27.38;18.02;;;10.90;99.90;;;;;;5094151;28;20235;-85
2023/02/25 01:06:10;;;;;;;36.33;17.30;;;10.90;99.90;;;;;;5095300;28;20171;-83
2023/02/25 01:08:36;;;;;;;30.45;17.73;;;10.90;99.90;;;;;;5096560;28;20668;-86
2023/02/25 01:11:20;;;;;;;28.93;16.33;;;10.90;99.90;;;;;;5093948;28;20172;-83
2023/02/25 01:13:47;;;;;;;31.88;16.73;;;10.90;99.90;;;;;;5093772;28;20488;-87
2023/02/25 01:16:15;;;;;;;23.60;15.00;;;10.90;99.90;;;;;;5093971;28;20173;-87
2023/02/25 01:18:42;;;;;;;26.73;15.52;;;10.90;99.90;;;;;;5095153;28;20695;-83
2023/02/25 01:21:16;;;;;;;25.73;14.63;;;10.80;99.90;;;;;;5093890;28;20195;-86
2023/02/25 01:23:43;;;;;;;29.30;16.38;;;10.80;99.90;;;;;;5093739;28;20204;-86
2023/02/25 01:26:08;;;;;;;23.63;14.45;;;10.70;99.90;;;;;;5093710;28;20176;-83
2023/02/25 01:28:34;;;;;;;46.03;27.03;;;10.60;99.90;;;;;;5093540;28;20241;-83
2023/02/25 01:31:00;;;;;;;24.90;12.73;;;10.60;99.90;;;;;;5093618;28;20271;-83
2023/02/25 01:33:26;;;;;;;18.03;13.37;;;10.60;99.90;;;;;;5093349;28;20201;-86
2023/02/25 01:35:51;;;;;;;17.97;13.43;;;10.70;99.90;;;;;;5094769;28;20168;-84
2023/02/25 01:38:17;;;;;;;20.70;12.50;;;10.70;99.90;;;;;;5093484;28;20204;-83
2023/02/25 01:40:43;;;;;;;20.40;12.33;;;10.70;99.90;;;;;;5093389;28;20260;-83
2023/02/25 01:43:14;;;;;;;22.63;12.70;;;10.70;99.90;;;;;;5094625;28;20752;-86
2023/02/25 01:45:43;;;;;;;18.05;12.50;;;10.80;99.90;;;;;;5093187;28;20207;-83
2023/02/25 01:48:15;;;;;;;21.77;14.90;;;10.90;99.90;;;;;;5094813;28;20215;-83
2023/02/25 01:50:48;;;;;;;22.48;13.25;;;10.90;99.90;;;;;;5095137;28;20252;-84
2023/02/25 01:53:16;;;;;;;21.23;12.02;;;10.90;99.90;;;;;;5094657;28;20224;-86
2023/02/25 01:55:42;;;;;;;22.77;11.57;;;10.90;99.90;;;;;;5093271;28;20208;-86
2023/02/25 01:58:11;;;;;;;26.40;13.77;;;10.90;99.90;;;;;;5094668;28;20235;-85
2023/02/25 02:00:37;;;;;;;19.60;13.77;;;10.80;99.90;;;;;;5092957;28;20255;-85
2023/02/25 02:03:04;;;;;;;22.35;12.80;;;10.80;99.90;;;;;;5094303;28;20192;-83
2023/02/25 02:05:44;;;;;;;21.88;11.35;;;10.80;99.90;;;;;;5093228;28;20179;-83
2023/02/25 02:08:10;;;;;;;18.45;12.30;;;10.80;99.90;;;;;;5092994;28;20200;-83
2023/02/25 02:10:36;;;;;;;22.25;12.75;;;10.80;99.90;;;;;;5094087;28;20563;-83
2023/02/25 02:13:02;;;;;;;21.30;12.73;;;10.90;99.90;;;;;;5093100;28;20246;-82
2023/02/25 02:15:30;;;;;;;18.90;12.90;;;11.00;99.90;;;;;;5094233;28;20226;-85
2023/02/25 02:17:59;;;;;;;19.73;12.13;;;11.00;99.90;;;;;;5094434;28;20455;-83
2023/02/25 02:20:53;;;;;;;19.25;12.05;;;11.00;99.90;;;;;;5094102;28;20220;-83
2023/02/25 02:23:46;;;;;;;20.95;12.23;;;11.10;99.90;;;;;;5092720;28;20200;-85
2023/02/25 02:26:25;;;;;;;17.77;12.43;;;11.20;99.90;;;;;;5093986;28;20225;-87
2023/02/25 02:29:09;;;;;;;14.20;10.60;;;11.40;99.90;;;;;;5094017;28;20200;-84
2023/02/25 02:31:53;;;;;;;23.52;10.75;;;11.40;99.90;;;;;;5094133;28;20179;-84
2023/02/25 02:35:13;;;;;;;18.58;12.40;;;11.50;99.90;;;;;;5092623;28;20667;-83
2023/02/25 02:37:45;;;;;;;20.85;13.02;;;11.40;99.90;;;;;;5071628;28;20204;-83
2023/02/25 02:40:26;;;;;;;17.38;11.70;;;11.50;99.90;;;;;;5072482;28;20157;-86
2023/02/25 02:43:08;;;;;;;22.15;11.85;;;11.60;99.90;;;;;;5103714;28;20211;-86
2023/02/25 02:45:45;;;;;;;18.83;11.43;;;11.70;99.90;;;;;;5092712;28;20710;-83
2023/02/25 02:48:29;;;;;;;19.80;12.30;;;11.70;99.90;;;;;;5093818;28;20277;-83
2023/02/25 02:51:01;;;;;;;19.45;12.05;;;11.80;99.90;;;;;;5093804;28;20169;-86
2023/02/25 02:53:35;;;;;;;19.08;10.15;;;11.80;99.90;;;;;;5092440;28;20209;-87
2023/02/25 02:56:03;;;;;;;20.58;10.93;;;11.90;99.90;;;;;;5092656;28;20171;-84
2023/02/25 02:58:37;;;;;;;17.48;11.30;;;11.90;99.90;;;;;;5093602;28;20203;-86
2023/02/25 03:01:27;;;;;;;15.30;11.18;;;11.90;99.90;;;;;;5092420;28;20176;-86
2023/02/25 03:04:02;;;;;;;15.15;9.07;;;11.90;99.90;;;;;;5094017;28;20220;-83
2023/02/25 03:06:36;;;;;;;17.97;12.10;;;11.90;99.90;;;;;;5092721;28;20172;-89
2023/02/25 03:09:19;;;;;;;17.50;10.97;;;11.90;99.90;;;;;;5093582;28;20486;-86
2023/02/25 03:11:45;;;;;;;16.30;10.70;;;11.90;99.90;;;;;;5092585;28;20454;-83
2023/02/25 03:14:11;;;;;;;21.58;12.13;;;11.90;99.90;;;;;;5093590;28;20639;-82
2023/02/25 03:16:42;;;;;;;20.52;11.38;;;12.00;99.90;;;;;;5093749;28;20172;-84
2023/02/25 03:19:11;;;;;;;15.70;10.43;;;12.00;99.90;;;;;;5092334;28;20226;-83
2023/02/25 03:21:47;;;;;;;20.92;11.98;;;12.00;99.90;;;;;;5092220;28;20172;-83
2023/02/25 03:24:21;;;;;;;18.30;11.48;;;12.00;99.90;;;;;;5096236;28;20202;-83
2023/02/25 03:26:48;;;;;;;17.77;10.65;;;11.90;99.90;;;;;;5097513;28;20176;-83
2023/02/25 03:29:16;;;;;;;16.03;10.20;;;11.90;99.90;;;;;;5097297;28;20186;-88
2023/02/25 03:32:09;;;;;;;21.42;11.25;;;11.80;99.90;;;;;;5095850;28;20424;-84
2023/02/25 03:34:38;;;;;;;18.30;10.57;;;11.80;99.90;;;;;;5091307;28;20692;-87
2023/02/25 03:37:14;;;;;;;14.05;8.70;;;11.70;99.90;;;;;;5095988;28;20193;-88
2023/02/25 03:39:45;;;;;;;19.83;12.38;;;11.70;99.90;;;;;;5097121;28;20173;-83
2023/02/25 03:42:15;;;;;;;16.23;11.45;;;11.60;99.90;;;;;;5095903;28;20241;-83
2023/02/25 03:44:52;;;;;;;22.75;11.85;;;11.60;99.90;;;;;;5095948;28;20183;-83
2023/02/25 03:47:19;;;;;;;17.17;9.90;;;11.50;99.90;;;;;;5097284;28;20556;-86
2023/02/25 03:50:13;;;;;;;18.10;10.90;;;11.50;99.90;;;;;;5096773;28;20558;-87
2023/02/25 03:52:40;;;;;;;18.52;11.60;;;11.50;99.90;;;;;;5095624;28;20207;-86
2023/02/25 03:55:08;;;;;;;16.48;10.52;;;11.50;99.90;;;;;;5095405;28;20212;-83
2023/02/25 03:57:39;;;;;;;16.20;10.65;;;11.50;99.90;;;;;;5096919;28;20191;-83
2023/02/25 04:00:17;;;;;;;20.00;10.88;;;11.40;99.90;;;;;;5097093;28;20157;-83
2023/02/25 04:02:45;;;;;;;18.17;11.40;;;11.40;99.90;;;;;;5097289;28;20661;-84
2023/02/25 04:05:11;;;;;;;17.90;10.52;;;11.40;99.90;;;;;;5096558;28;20172;-83
2023/02/25 04:07:38;;;;;;;23.92;11.52;;;11.40;99.90;;;;;;5095427;28;20571;-86
2023/02/25 04:10:06;;;;;;;20.27;12.05;;;11.50;99.90;;;;;;5096509;28;20180;-85
2023/02/25 04:12:32;;;;;;;16.10;11.68;;;11.40;99.90;;;;;;5096433;28;20594;-83
2023/02/25 04:14:57;;;;;;;16.55;11.60;;;11.40;99.90;;;;;;5095014;28;20677;-83
2023/02/25 04:17:24;;;;;;;21.30;13.33;;;11.40;99.90;;;;;;5095163;28;20203;-83
2023/02/25 04:19:50;;;;;;;19.70;12.55;;;11.40;99.90;;;;;;5096285;28;20259;-83
2023/02/25 04:22:15;;;;;;;18.57;12.53;;;11.40;99.90;;;;;;5096480;28;20676;-83
2023/02/25 04:24:41;;;;;;;19.83;11.80;;;11.40;99.90;;;;;;5096147;28;20177;-83
2023/02/25 04:27:07;;;;;;;17.13;11.30;;;11.50;99.90;;;;;;5096413;28;20192;-86
2023/02/25 04:29:32;;;;;;;19.37;10.13;;;11.50;99.90;;;;;;5094776;28;20238;-84
2023/02/25 04:31:58;;;;;;;20.43;10.43;;;11.50;99.90;;;;;;5094936;28;20205;-86
2023/02/25 04:34:24;;;;;;;16.63;11.00;;;11.50;99.90;;;;;;5094083;28;20208;-83
2023/02/25 04:36:50;;;;;;;17.90;10.13;;;11.60;99.90;;;;;;5095869;28;20180;-83
2023/02/25 04:39:16;;;;;;;17.70;11.37;;;11.60;99.90;;;;;;5096410;28;20173;-83
2023/02/25 04:41:43;;;;;;;18.13;10.25;;;11.60;99.90;;;;;;5095998;28;20169;-83
2023/02/25 04:44:09;;;;;;;17.38;11.18;;;11.70;99.90;;;;;;5094557;28;20176;-86
2023/02/25 04:46:37;;;;;;;17.50;11.07;;;11.70;99.90;;;;;;5094525;28;20180;-87
2023/02/25 04:49:04;;;;;;;19.88;10.85;;;11.70;99.90;;;;;;5095743;28;20401;-83
2023/02/25 04:51:30;;;;;;;20.88;11.43;;;11.70;99.90;;;;;;5094321;28;20184;-87
2023/02/25 04:53:56;;;;;;;19.27;11.40;;;11.70;99.90;;;;;;5094345;28;20219;-83
2023/02/25 04:56:21;;;;;;;20.30;10.70;;;11.70;99.90;;;;;;5094360;28;20229;-87
2023/02/25 04:58:47;;;;;;;16.10;11.03;;;11.70;99.90;;;;;;5095408;28;20457;-86
2023/02/25 05:01:13;;;;;;;25.07;10.83;;;11.70;99.90;;;;;;5094293;28;20173;-83
2023/02/25 05:03:40;;;;;;;17.33;11.63;;;11.70;99.90;;;;;;5094044;28;20204;-86
2023/02/25 05:06:08;;;;;;;19.85;12.00;;;11.70;99.90;;;;;;5094245;28;20520;-83
2023/02/25 05:08:35;;;;;;;17.73;10.88;;;11.80;99.90;;;;;;5093953;28;20257;-86
2023/02/25 05:11:02;;;;;;;21.77;10.52;;;11.80;99.90;;;;;;5094004;28;20666;-86
2023/02/25 05:13:28;;;;;;;22.67;11.00;;;11.80;99.90;;;;;;5095018;28;20704;-86
2023/02/25 05:16:10;;;;;;;18.63;10.77;;;11.70;99.90;;;;;;5093964;28;20225;-87
2023/02/25 05:18:40;;;;;;;16.95;11.13;;;11.80;99.90;;;;;;5095048;28;20279;-88
2023/02/25 05:21:15;;;;;;;21.55;10.75;;;11.90;99.90;;;;;;5093847;28;20212;-83
2023/02/25 05:23:43;;;;;;;18.55;10.45;;;11.90;99.90;;;;;;5095116;28;20681;-88
2023/02/25 05:26:09;;;;;;;15.57;10.20;;;11.90;99.90;;;;;;5095499;28;20176;-83
2023/02/25 05:28:36;;;;;;;16.73;10.68;;;11.90;99.90;;;;;;5094756;28;20197;-88
2023/02/25 05:31:07;;;;;;;20.20;12.30;;;11.90;99.90;;;;;;5095024;28;20630;-88
2023/02/25 05:33:34;;;;;;;18.85;11.27;;;11.90;99.90;;;;;;5093400;28;20201;-87
2023/02/25 05:36:00;;;;;;;20.23;10.30;;;11.90;99.90;;;;;;5093614;28;20271;-88
2023/02/25 05:38:27;;;;;;;18.50;11.90;;;11.90;99.90;;;;;;5093534;28;20907;-86
2023/02/25 05:40:53;;;;;;;21.10;11.93;;;11.90;99.90;;;;;;5094733;28;20193;-83
2023/02/25 05:43:19;;;;;;;17.65;11.32;;;12.00;99.90;;;;;;5094850;28;20489;-86
2023/02/25 05:45:53;;;;;;;20.63;11.43;;;11.90;99.90;;;;;;5094641;28;20172;-87
2023/02/25 05:48:18;;;;;;;21.33;13.20;;;11.90;99.90;;;;;;5072064;28;20236;-83
2023/02/25 05:50:44;;;;;;;22.10;12.37;;;11.90;99.90;;;;;;5071170;28;20213;-82
2023/02/25 05:53:09;;;;;;;24.13;12.87;;;11.90;99.90;;;;;;5070879;28;20207;-87
2023/02/25 05:55:42;;;;;;;22.50;13.17;;;11.90;99.90;;;;;;5072651;28;20200;-83
2023/02/25 05:58:09;;;;;;;19.05;11.63;;;12.00;99.90;;;;;;5074116;28;20208;-87
2023/02/25 06:00:35;;;;;;;19.58;12.27;;;12.00;99.90;;;;;;5073450;28;20177;-86
2023/02/25 06:03:01;;;;;;;17.45;11.43;;;12.10;99.90;;;;;;5072485;28;20426;-83
2023/02/25 06:05:29;;;;;;;22.80;13.27;;;12.10;99.90;;;;;;5072478;28;20603;-83
2023/02/25 06:07:56;;;;;;;23.15;11.98;;;12.10;99.90;;;;;;5072487;28;20196;-83
2023/02/25 06:10:22;;;;;;;17.45;11.85;;;12.20;99.90;;;;;;5070597;28;20658;-86
2023/02/25 06:12:48;;;;;;;18.77;11.10;;;12.20;99.90;;;;;;5071548;28;20236;-86
2023/02/25 06:15:15;;;;;;;22.37;12.03;;;12.20;99.90;;;;;;5071887;28;20229;-82
2023/02/25 06:17:41;;;;;;;19.23;10.67;;;12.20;99.90;;;;;;5071443;28;20442;-87
2023/02/25 06:20:08;;;;;;;19.73;12.07;;;12.20;99.90;;;;;;5073925;28;20173;-83
2023/02/25 06:22:33;;;;;;;25.35;15.95;;;12.20;99.90;;;;;;5072601;28;20678;-83
2023/02/25 06:24:59;;;;;;;21.60;12.87;;;12.20;99.90;;;;;;5073824;28;20268;-83
2023/02/25 06:27:25;;;;;;;29.27;17.87;;;12.20;99.90;;;;;;5074236;28;20181;-83
2023/02/25 06:29:51;;;;;;;25.40;16.67;;;12.20;99.90;;;;;;5073885;28;20230;-83
2023/02/25 06:32:17;;;;;;;18.00;12.70;;;12.30;99.90;;;;;;5072783;28;20668;-86
2023/02/25 06:34:42;;;;;;;32.90;20.67;;;12.30;99.90;;;;;;5072462;28;20220;-83
2023/02/25 06:37:08;;;;;;;58.60;34.47;;;12.30;99.90;;;;;;5074030;28;20470;-87
2023/02/25 06:39:34;;;;;;;35.47;21.63;;;12.20;99.90;;;;;;5073667;28;20234;-86
2023/02/25 06:42:00;;;;;;;20.13;12.80;;;12.20;99.90;;;;;;5073912;28;20425;-88
2023/02/25 06:44:27;;;;;;;19.87;13.73;;;12.20;99.90;;;;;;5072283;28;20203;-83
2023/02/25 06:46:56;;;;;;;23.35;11.05;;;12.10;99.90;;;;;;5072385;28;20429;-86
2023/02/25 06:49:23;;;;;;;18.40;11.35;;;12.20;99.90;;;;;;5073644;28;20181;-86
2023/02/25 06:51:49;;;;;;;21.00;10.98;;;12.20;99.90;;;;;;5073417;28;20539;-83
2023/02/25 06:54:18;;;;;;;20.83;11.40;;;12.10;99.90;;;;;;5073498;28;20258;-84
2023/02/25 06:56:44;;;;;;;19.50;12.20;;;12.20;99.90;;;;;;5072344;28;20682;-84
2023/02/25 06:59:09;;;;;;;21.50;11.45;;;12.30;99.90;;;;;;5074982;28;20500;-82
2023/02/25 07:01:36;;;;;;;21.73;13.90;;;12.30;99.90;;;;;;5076343;28;20606;-88
2023/02/25 07:04:02;;;;;;;27.03;18.00;;;12.40;99.90;;;;;;5077649;28;20284;-83
2023/02/25 07:06:31;;;;;;;30.67;16.30;;;12.40;99.90;;;;;;5076280;28;20430;-83
2023/02/25 07:08:57;;;;;;;28.97;18.53;;;12.40;99.90;;;;;;5077370;28;20430;-83
2023/02/25 07:11:23;;;;;;;25.07;16.03;;;12.50;99.90;;;;;;5077528;28;20413;-87
2023/02/25 07:13:49;;;;;;;20.80;14.20;;;12.60;99.90;;;;;;5076995;28;20582;-83
2023/02/25 07:16:16;;;;;;;19.50;12.40;;;12.70;99.90;;;;;;5076162;28;20185;-85
2023/02/25 07:18:42;;;;;;;21.40;9.20;;;12.90;99.90;;;;;;5075868;28;20446;-88
2023/02/25 07:21:08;;;;;;;15.30;11.03;;;13.00;99.90;;;;;;5077281;28;20412;-83
2023/02/25 07:23:34;;;;;;;18.53;11.70;;;13.10;99.90;;;;;;5077475;28;20426;-84
2023/02/25 07:26:04;;;;;;;19.17;10.63;;;13.20;99.90;;;;;;5077237;28;20898;-87
2023/02/25 07:28:31;;;;;;;21.90;12.53;;;13.40;99.90;;;;;;5077273;28;20205;-86
2023/02/25 07:31:00;;;;;;;10.97;6.90;;;13.50;99.90;;;;;;5076920;28;20466;-84
2023/02/25 07:33:26;;;;;;;16.20;6.83;;;13.50;99.90;;;;;;5076191;28;20834;-83
2023/02/25 07:35:55;;;;;;;10.40;7.20;;;13.40;99.90;;;;;;5075524;28;20469;-87
2023/02/25 07:38:21;;;;;;;14.80;7.63;;;13.30;99.90;;;;;;5075439;28;20519;-83
2023/02/25 07:40:47;;;;;;;12.63;7.20;;;13.30;99.90;;;;;;5075567;28;20793;-87
2023/02/25 07:43:13;;;;;;;10.70;7.07;;;13.30;99.90;;;;;;5076635;28;20223;-87
2023/02/25 07:45:39;;;;;;;14.80;8.27;;;13.30;99.90;;;;;;5076620;28;20443;-83
2023/02/25 07:48:05;;;;;;;17.30;11.90;;;13.20;99.90;;;;;;5075362;28;20438;-88
2023/02/25 07:50:31;;;;;;;19.47;12.80;;;12.90;99.90;;;;;;5076740;28;20979;-82
2023/02/25 07:52:56;;;;;;;23.53;16.03;;;12.40;99.90;;;;;;5075471;28;20193;-87
2023/02/25 07:55:23;;;;;;;16.87;12.73;;;12.00;99.90;;;;;;5075273;28;20503;-83
2023/02/25 07:57:49;;;;;;;14.93;7.85;;;11.80;99.90;;;;;;5076793;28;20276;-83
2023/02/25 08:00:16;;;;;;;8.47;4.70;;;11.50;99.90;;;;;;5076486;28;20212;-83
2023/02/25 08:02:43;;;;;;;8.52;5.55;;;11.40;99.90;;;;;;5076262;28;20280;-83
2023/02/25 08:05:09;;;;;;;6.40;4.35;;;11.20;99.90;;;;;;5076333;28;20548;-86
2023/02/25 08:07:35;;;;;;;5.17;3.63;;;11.10;99.90;;;;;;5076569;28;20200;-83
2023/02/25 08:10:00;;;;;;;6.47;5.00;;;11.00;99.90;;;;;;5075077;28;20437;-83
2023/02/25 08:12:26;;;;;;;4.13;3.30;;;10.90;99.90;;;;;;5074728;28;20701;-86
2023/02/25 08:14:52;;;;;;;4.30;2.97;;;10.80;99.90;;;;;;5076148;28;20685;-83
2023/02/25 08:17:17;;;;;;;4.90;3.40;;;10.70;99.90;;;;;;5074784;28;20201;-83
2023/02/25 08:19:43;;;;;;;9.73;4.00;;;10.70;99.90;;;;;;5076079;28;20177;-86
2023/02/25 08:22:11;;;;;;;5.80;3.27;;;10.70;99.90;;;;;;5074922;28;20309;-86
2023/02/25 08:24:40;;;;;;;8.13;4.50;;;10.60;99.90;;;;;;5075124;28;20686;-83
2023/02/25 08:27:09;;;;;;;12.27;5.05;;;10.50;99.90;;;;;;5076344;28;20554;-84
2023/02/25 08:29:36;;;;;;;8.00;5.78;;;10.50;99.90;;;;;;5074577;28;20273;-82
2023/02/25 08:32:02;;;;;;;8.68;5.32;;;10.40;99.90;;;;;;5074258;28;20205;-85
2023/02/25 08:34:27;;;;;;;9.80;6.03;;;10.40;99.90;;;;;;5074392;28;20217;-82
2023/02/25 08:36:53;;;;;;;11.70;6.30;;;10.40;99.90;;;;;;5075907;28;20676;-85
2023/02/25 08:39:19;;;;;;;8.30;5.20;;;10.40;99.90;;;;;;5074456;28;20223;-83
2023/02/25 08:41:44;;;;;;;8.03;5.33;;;10.40;99.90;;;;;;5074267;28;20183;-82
2023/02/25 08:44:10;;;;;;;10.57;5.17;;;10.40;99.90;;;;;;5074376;28;20222;-86
2023/02/25 08:46:36;;;;;;;8.23;5.30;;;10.40;99.90;;;;;;5075859;28;20251;-83
2023/02/25 08:49:03;;;;;;;8.88;5.38;;;10.40;99.90;;;;;;5075493;28;20681;-85
2023/02/25 08:51:33;;;;;;;6.75;5.05;;;10.40;99.90;;;;;;5075655;28;20258;-86
2023/02/25 08:54:05;;;;;;;6.13;4.40;;;10.40;99.90;;;;;;5074031;28;20370;-82
2023/02/25 08:56:32;;;;;;;7.22;5.38;;;10.50;99.90;;;;;;5074241;28;20184;-84
2023/02/25 08:58:58;;;;;;;7.10;3.90;;;10.50;99.90;;;;;;5075225;28;20193;-86
2023/02/25 09:01:24;;;;;;;9.13;4.35;;;10.50;99.90;;;;;;5074108;28;20222;-82
2023/02/25 09:03:53;;;;;;;4.03;3.27;;;10.50;99.90;;;;;;5075172;28;20608;-87
2023/02/25 09:06:21;;;;;;;4.40;3.35;;;10.50;99.90;;;;;;5074950;28;20181;-86
2023/02/25 09:08:47;;;;;;;5.70;3.58;;;10.50;99.90;;;;;;5075165;28;20203;-82
2023/02/25 09:11:12;;;;;;;4.90;3.53;;;10.60;99.90;;;;;;5075169;28;20252;-87
2023/02/25 09:13:38;;;;;;;3.43;3.00;;;10.60;99.90;;;;;;5074726;28;20233;-85
2023/02/25 09:16:04;;;;;;;3.17;2.43;;;10.60;99.90;;;;;;5074982;28;20204;-83
2023/02/25 09:18:30;;;;;;;5.80;3.70;;;10.60;99.90;;;;;;5074895;28;20197;-82
2023/02/25 09:20:56;;;;;;;3.70;2.90;;;10.60;99.90;;;;;;5074576;28;20413;-86
2023/02/25 09:23:22;;;;;;;4.80;2.60;;;10.50;99.90;;;;;;5073639;28;20266;-87
2023/02/25 09:25:47;;;;;;;4.63;3.17;;;10.50;99.90;;;;;;5074730;28;20252;-82
2023/02/25 09:28:13;;;;;;;6.23;4.07;;;10.50;99.90;;;;;;5074703;28;20723;-83
2023/02/25 09:30:39;;;;;;;4.07;3.27;;;10.50;99.90;;;;;;5074605;28;20173;-86
2023/02/25 09:33:05;;;;;;;6.40;3.80;;;10.60;99.90;;;;;;5073285;28;20209;-82
2023/02/25 09:35:31;;;;;;;3.80;3.40;;;10.60;99.90;;;;;;5074030;28;20717;-85
2023/02/25 09:37:57;;;;;;;5.40;3.47;;;10.60;99.90;;;;;;5075024;28;20196;-87
2023/02/25 09:40:23;;;;;;;4.65;3.00;;;10.60;99.90;;;;;;5074465;28;20181;-82
2023/02/25 09:42:54;;;;;;;3.33;3.00;;;10.60;99.90;;;;;;5073364;28;20205;-83
2023/02/25 09:45:23;;;;;;;6.55;2.60;;;10.60;99.90;;;;;;5074375;28;20177;-82
2023/02/25 09:47:55;;;;;;;4.40;3.20;;;10.60;99.90;;;;;;5073307;28;20196;-83
2023/02/25 09:50:35;;;;;;;2.90;2.70;;;10.70;99.90;;;;;;5072007;28;20808;-83
2023/02/25 09:53:14;;;;;;;2.67;2.40;;;10.60;99.90;;;;;;5072688;28;20199;-83
2023/02/25 09:55:41;;;;;;;3.05;2.45;;;10.50;99.90;;;;;;5072862;28;20204;-87
2023/02/25 09:58:27;;;;;;;3.38;3.08;;;10.40;99.90;;;;;;5074185;28;20224;-86
2023/02/25 10:00:53;;;;;;;3.97;3.30;;;10.40;99.90;;;;;;5074054;28;20173;-86
2023/02/25 10:03:37;;;;;;;4.23;3.10;;;10.30;99.90;;;;;;5070920;28;20707;-82
2023/02/25 10:06:09;;;;;;;4.13;3.65;;;10.20;99.90;;;;;;5070655;28;20185;-83
2023/02/25 10:08:46;;;;;;;3.80;3.50;;;10.10;99.90;;;;;;5070535;28;20211;-86
2023/02/25 10:11:32;;;;;;;2.47;2.25;;;10.10;99.90;;;;;;5070656;28;20243;-83
2023/02/25 10:14:33;;;;;;;1.40;1.13;;;9.90;99.90;;;;;;5071744;28;20229;-85
2023/02/25 10:17:08;;;;;;;1.25;1.15;;;9.50;99.90;;;;;;5072169;28;20193;-87
2023/02/25 10:19:48;;;;;;;1.52;1.40;;;9.20;99.90;;;;;;5073932;28;20185;-85
2023/02/25 10:23:05;;;;;;;1.15;1.00;;;9.00;99.90;;;;;;5073612;28;20250;-83
2023/02/25 10:25:36;;;;;;;1.30;1.05;;;8.80;99.90;;;;;;5054966;28;20181;-86
2023/02/25 10:28:06;;;;;;;3.10;1.70;;;8.70;99.90;;;;;;5054884;28;20227;-86
2023/02/25 10:30:58;;;;;;;1.92;1.30;;;8.60;99.90;;;;;;5063187;28;20187;-86
2023/02/25 10:33:26;;;;;;;2.15;1.65;;;8.60;99.90;;;;;;5073098;28;20666;-82
2023/02/25 10:36:13;;;;;;;1.40;1.30;;;8.50;99.90;;;;;;5072659;28;20220;-86
2023/02/25 10:38:45;;;;;;;2.95;1.60;;;8.60;99.90;;;;;;5072510;28;20248;-86
2023/02/25 10:41:11;;;;;;;3.83;1.80;;;8.60;99.90;;;;;;5072468;28;20676;-82
2023/02/25 10:43:37;;;;;;;2.25;1.70;;;8.60;99.90;;;;;;5073484;28;20197;-85
2023/02/25 10:46:19;;;;;;;2.30;1.30;;;8.60;99.90;;;;;;5073542;28;20179;-85
2023/02/25 10:49:14;;;;;;;2.30;2.00;;;8.60;99.90;;;;;;5072254;28;20322;-82
2023/02/25 10:52:03;;;;;;;2.38;2.17;;;8.70;99.90;;;;;;5069719;28;20181;-86
2023/02/25 10:54:34;;;;;;;2.85;2.42;;;8.70;99.90;;;;;;5073342;28;20212;-83
2023/02/25 10:57:14;;;;;;;2.70;2.08;;;8.80;99.90;;;;;;5073464;28;20254;-85
2023/02/25 10:59:42;;;;;;;2.88;2.38;;;8.90;99.90;;;;;;5072260;28;20181;-85
2023/02/25 11:02:27;;;;;;;1.83;1.73;;;9.00;99.90;;;;;;5073721;28;20268;-85
2023/02/25 11:04:54;;;;;;;2.35;2.25;;;9.10;99.90;;;;;;5073669;28;20177;-86
2023/02/25 11:07:38;;;;;;;2.13;2.00;;;9.20;99.90;;;;;;5074266;28;20681;-86
2023/02/25 11:10:30;;;;;;;2.30;2.10;;;9.20;99.90;;;;;;5073561;28;20173;-82
2023/02/25 11:12:57;;;;;;;2.72;2.47;;;9.20;99.90;;;;;;5072723;28;20237;-86
2023/02/25 11:15:51;;;;;;;1.88;1.77;;;9.20;99.90;;;;;;5072033;28;20644;-82
2023/02/25 11:18:25;;;;;;;2.75;2.13;;;9.10;99.90;;;;;;5070673;28;20204;-86
2023/02/25 11:20:56;;;;;;;2.08;1.92;;;9.10;99.90;;;;;;5073382;28;20161;-83
2023/02/25 11:23:28;;;;;;;1.98;1.75;;;9.10;99.90;;;;;;5073257;28;20197;-83
2023/02/25 11:25:57;;;;;;;3.65;2.45;;;9.00;99.90;;;;;;5071994;28;20180;-82
2023/02/25 11:28:31;;;;;;;2.47;1.90;;;8.80;99.90;;;;;;5073215;28;20193;-85
2023/02/25 11:31:27;;;;;;;2.30;2.10;;;8.80;99.90;;;;;;5074137;28;20173;-86
2023/02/25 11:34:00;;;;;;;2.97;2.78;;;8.90;99.90;;;;;;5072954;28;20774;-86
2023/02/25 11:36:34;;;;;;;7.68;2.83;;;8.90;99.90;;;;;;5072200;28;20177;-86
2023/02/25 11:39:19;;;;;;;6.15;5.55;;;9.00;99.90;;;;;;5073139;28;20737;-86
2023/02/25 11:41:48;;;;;;;4.90;3.40;;;9.10;99.90;;;;;;5071965;28;20536;-86
2023/02/25 11:44:40;;;;;;;5.53;3.85;;;9.20;99.90;;;;;;5074716;28;20697;-84
2023/02/25 11:47:28;;;;;;;6.00;5.30;;;9.20;99.90;;;;;;5075675;28;20569;-87
2023/02/25 11:50:12;;;;;;;4.70;3.17;;;9.30;99.90;;;;;;5076371;28;20165;-83
2023/02/25 11:53:03;;;;;;;3.30;3.00;;;9.40;99.90;;;;;;5075518;28;20192;-83
2023/02/25 11:55:48;;;;;;;2.67;2.08;;;9.40;99.90;;;;;;5075879;28;20580;-82
2023/02/25 11:58:13;;;;;;;3.50;3.20;;;9.50;99.90;;;;;;5075590;28;20237;-80
2023/02/25 12:00:57;;;;;;;3.90;3.20;;;9.50;99.90;;;;;;5075544;28;20204;-80
2023/02/25 12:03:34;;;;;;;7.88;7.20;;;9.50;99.90;;;;;;5075919;28;20224;-80
2023/02/25 12:06:21;;;;;;;6.70;6.10;;;9.50;99.90;;;;;;5088975;28;20180;-79
2023/02/25 12:09:03;;;;;;;3.65;3.35;;;9.40;99.90;;;;;;5074521;28;20200;-80
2023/02/25 12:11:34;;;;;;;6.90;5.75;;;9.40;99.90;;;;;;5091617;28;20271;-81
2023/02/25 12:14:31;;;;;;;4.05;3.45;;;9.40;99.90;;;;;;5085700;28;20216;-80
2023/02/25 12:17:22;;;;;;;4.43;4.00;;;9.40;99.90;;;;;;5082124;28;20203;-81
2023/02/25 12:20:25;;;;;;;4.57;4.05;;;9.40;99.90;;;;;;5095693;28;20172;-81
2023/02/25 12:23:02;;;;;;;7.13;6.53;;;9.40;99.90;;;;;;5095604;28;20199;-80
2023/02/25 12:25:56;;;;;;;5.00;3.75;;;9.30;99.90;;;;;;5094610;28;20176;-80
2023/02/25 12:28:44;;;;;;;2.42;2.22;;;9.30;99.90;;;;;;5093612;28;20196;-80
2023/02/25 12:31:27;;;;;;;2.58;2.38;;;9.30;99.90;;;;;;5092174;28;20697;-82
2023/02/25 12:34:15;;;;;;;9.32;5.32;;;9.30;99.90;;;;;;5092200;28;20215;-81
2023/02/25 12:37:08;;;;;;;3.08;2.45;;;9.20;99.90;;;;;;5092172;28;20173;-81
2023/02/25 12:39:37;;;;;;;4.38;3.20;;;9.20;99.90;;;;;;5093598;28;20176;-82
2023/02/25 12:42:34;;;;;;;19.95;14.15;;;9.20;99.90;;;;;;5091936;28;20291;-81
2023/02/25 12:45:24;;;;;;;3.58;3.25;;;9.20;99.90;;;;;;5064225;28;20692;-79
2023/02/25 12:48:34;;;;;;;4.00;3.70;;;9.20;99.90;;;;;;5093416;28;20550;-77
2023/02/25 12:51:18;;;;;;;3.97;3.58;;;9.20;99.90;;;;;;5080170;28;20645;-80
2023/02/25 12:53:56;;;;;;;12.43;7.30;;;9.40;99.90;;;;;;5093239;28;20672;-79
2023/02/25 12:56:52;;;;;;;9.32;7.22;;;9.60;99.90;;;;;;5093774;28;20192;-80
2023/02/25 12:59:35;;;;;;;18.02;13.30;;;9.50;99.90;;;;;;5092464;28;20291;-77